Opa-locka Executive Airport
KOPF : rendu visible

Aérodrome :











RETROUVEZ-NOUS SUR...

 
LOGIN :

S'inscrire | Disclaimer

   EN    FR    IT 

 









Légende :    VFR   VFR Marginal   IFR   IFR Intensif   IFR Très Intensif
Visi : 
Plafond : 
>= 8 km
>= 3000ft
5 à 8 km
1000 à 3000 ft
1500m à 5 km
500 à 1000 ft
800 à 1500m
200 à 500 ft
< 800m
< 200 ft
Symboles :   Orages  Brouillard  Fortes neiges  Fortes précipitations  Vent > 20 kt






- Altitude de l'aérodrome : 8 ft


KOPF - Opa-locka Executive

DERNIER METAR :
  • 071153Z 00000KT 10SM CLR 27/24 A3007 RMK AO2 SLP183 70067 T02720244 10272 20250 53013

METARs EXPIRÉS :
  • 071053Z 00000KT 10SM CLR 25/23 A3005 RMK AO2 SLP177 T02500233
  • 070953Z 30003KT 10SM CLR 26/23 A3004 RMK AO2 SLP172 T02560233

TAF KOPF
Valide du 07 à 12h jusqu'au 08 à 12h UTC


071121Z 0712/0812 VRB03KT P6SM FEW025 SCT100
FM071600 09008KT P6SM VCTS SCT025CB BKN045
FM080200 VRB03KT P6SM FEW040 SCT100
FIR KZMA / Amérique du Nord



MET'MAP, la Météo Aéronautique d'un coup d'oeil ! - Copyright ORBIFLY Décembre 2007 - Disclaimer

ORBIFLY MET'MAP TEAM :

Programmation & Développement : Alexandra Zaïnal
Sur une idée originale de : Baudouin d'Aumeries
Assistance à la programmation : Marc-Olivier Méhu
Soutien technique & logistique : Manuel Goepfert

Contact : metmap@orbifly.com




SOURCES & CREDITS :

   NOAA       Earth
Advisory